| time (UTC) | temp F | wind direction | speed MPH | gust MPH | rain 1hr in | rain 24hr in | rain mn in | humidity % | barometer mb |
| 20260507020322 | 63 | 177 | 0.0 | 0.0 | 0.00 | 0.05 | 0.05 | 91 | 1009.1 |
| 20260507013330 | 64 | 360 | 0.0 | 0.0 | 0.00 | 0.05 | 0.05 | 89 | 1009.6 |
| 20260507010340 | 66 | 360 | 0.0 | 2.0 | 0.00 | 0.05 | 0.05 | 87 | 1009.2 |
| 20260507003348 | 67 | 360 | 2.0 | 5.0 | 0.00 | 0.05 | 0.05 | 85 | 1009.1 |
| 20260507000329 | 68 | 190 | 4.0 | 7.0 | 0.00 | 0.05 | 0.05 | 83 | 1008.7 |
| 20260506233342 | 69 | 190 | 3.0 | 9.0 | 0.00 | 0.05 | 0.05 | 82 | 1008.6 |
| 20260506230321 | 70 | 213 | 4.0 | 10.0 | 0.00 | 0.05 | 0.05 | 80 | 1008.3 |
| 20260506223408 | 70 | 217 | 5.0 | 10.0 | 0.00 | 0.05 | 0.05 | 79 | 1008.5 |
| 20260506220326 | 70 | 163 | 3.0 | 13.0 | 0.00 | 0.05 | 0.05 | 79 | 1008.6 |
| 20260506213338 | 70 | 225 | 6.0 | 12.0 | 0.00 | 0.05 | 0.05 | 80 | 1008.4 |
| 20260506210345 | 69 | 205 | 8.0 | 13.0 | 0.00 | 0.05 | 0.05 | 80 | 1008.3 |
| 20260506203327 | 69 | 211 | 6.0 | 14.0 | 0.00 | 0.05 | 0.05 | 80 | 1008.8 |
| 20260506200338 | 69 | 169 | 7.0 | 15.0 | 0.00 | 0.05 | 0.05 | 79 | 1008.9 |
| 20260506193322 | 70 | 215 | 4.0 | 8.0 | 0.00 | 0.05 | 0.05 | 79 | 1009.5 |
| 20260506190334 | 70 | 196 | 10.0 | 18.0 | 0.00 | 0.05 | 0.05 | 78 | 1008.9 |
| 20260506183344 | 68 | 217 | 8.0 | 19.0 | 0.00 | 0.05 | 0.05 | 81 | 1009.9 |
| 20260506180322 | 67 | 225 | 11.0 | 23.0 | 0.00 | 0.05 | 0.05 | 84 | 1010.0 |
| 20260506173337 | 65 | 360 | 11.0 | 25.0 | 0.01 | 0.05 | 0.05 | 89 | 1010.3 |
| 20260506170342 | 64 | 360 | 8.0 | 21.0 | 0.03 | 0.05 | 0.05 | 90 | 1010.5 |
| 20260506163322 | 64 | 360 | 9.0 | 15.0 | 0.03 | 0.04 | 0.04 | 89 | 1010.7 |
| 20260506160345 | 65 | 193 | 5.0 | 19.0 | 0.02 | 0.02 | 0.02 | 90 | 1011.2 |
| 20260506153326 | 65 | 360 | 7.0 | 14.0 | 0.01 | 0.01 | 0.01 | 87 | 1011.7 |
| 20260506150354 | 67 | 360 | 5.0 | 12.0 | 0.00 | 0.00 | 0.00 | 81 | 1011.6 |
| 20260506143357 | 68 | 214 | 10.0 | 18.0 | 0.00 | 0.00 | 0.00 | 74 | 1011.6 |
| 20260506140346 | 69 | 205 | 8.0 | 17.0 | 0.00 | 0.00 | 0.00 | 73 | 1011.5 |
| 20260506133328 | 69 | 205 | 11.0 | 31.0 | 0.00 | 0.00 | 0.00 | 71 | 1011.5 |
| 20260506130342 | 69 | 182 | 11.0 | 20.0 | 0.00 | 0.00 | 0.00 | 70 | 1011.5 |
| 20260506123322 | 68 | 360 | 10.0 | 17.0 | 0.00 | 0.00 | 0.00 | 73 | 1011.9 |
| 20260506120333 | 67 | 360 | 8.0 | 19.0 | 0.00 | 0.00 | 0.00 | 77 | 1012.1 |
| 20260506113402 | 64 | 360 | 11.0 | 18.0 | 0.00 | 0.00 | 0.00 | 80 | 1011.6 |
| 20260506110326 | 64 | 360 | 7.0 | 15.0 | 0.00 | 0.00 | 0.00 | 80 | 1011.5 |
| 20260506103331 | 63 | 360 | 5.0 | 12.0 | 0.00 | 0.00 | 0.00 | 81 | 1011.4 |
| 20260506100359 | 63 | 172 | 5.0 | 9.0 | 0.00 | 0.00 | 0.00 | 80 | 1011.6 |
| 20260506093345 | 63 | 190 | 7.0 | 14.0 | 0.00 | 0.00 | 0.00 | 79 | 1011.4 |
| 20260506090329 | 63 | 157 | 5.0 | 15.0 | 0.00 | 0.00 | 0.00 | 80 | 1011.5 |
| 20260506083338 | 63 | 360 | 7.0 | 15.0 | 0.00 | 0.00 | 0.00 | 80 | 1011.5 |
| 20260506080321 | 64 | 360 | 7.0 | 14.0 | 0.00 | 0.00 | 0.00 | 80 | 1011.7 |
| 20260506073344 | 65 | 360 | 9.0 | 19.0 | 0.00 | 0.00 | 0.00 | 79 | 1011.9 |
| 20260506070336 | 65 | 360 | 8.0 | 17.0 | 0.00 | 0.00 | 0.00 | 79 | 1011.9 |
| 20260506060325 | 66 | 360 | 10.0 | 19.0 | 0.00 | 0.00 | 0.00 | 80 | 1012.0 |
| 20260506050342 | 67 | 360 | 8.0 | 18.0 | 0.00 | 0.00 | 0.00 | 78 | 1012.4 |
| 20260506043324 | 67 | 198 | 12.0 | 22.0 | 0.00 | 0.00 | 0.00 | 77 | 1012.5 |
| 20260506040330 | 68 | 227 | 10.0 | 18.0 | 0.00 | 0.00 | 0.00 | 77 | 1012.5 |
| 20260506033334 | 68 | 194 | 7.0 | 21.0 | 0.00 | 0.00 | 0.00 | 77 | 1012.3 |
| 20260506030322 | 68 | 167 | 10.0 | 18.0 | 0.00 | 0.00 | 0.00 | 77 | 1012.3 |
| 20260506023330 | 68 | 189 | 9.0 | 20.0 | 0.00 | 0.00 | 0.00 | 78 | 1012.4 |